Time;durP1;ratioP1;P1;durP2;ratioP2;P2;SDS_P1;SDS_P2;PMS_P1;PMS_P2;Temp;Humidity;BMP_temperature;BMP_pressure;BME280_temperature;BME280_humidity;BME280_pressure;Samples;Min_cycle;Max_cycle;Signal;HPM_P1;HPM_P2
2024/01/19 00:00:18;;;;;;;;;;;26.50;83.40;;;;;;5013681;28;20358;-69
2024/01/19 00:02:45;;;;;;;;;;;26.40;82.70;;;;;;5013659;28;19974;-70
2024/01/19 00:05:11;;;;;;;;;;;26.50;83.40;;;;;;5013315;28;19931;-70
2024/01/19 00:07:38;;;;;;;;;;;26.60;84.20;;;;;;5013470;28;19953;-70
2024/01/19 00:10:05;;;;;;;;;;;26.70;84.20;;;;;;5013412;28;20376;-71
2024/01/19 00:12:35;;;;;;;;;;;26.80;83.20;;;;;;5012962;28;19955;-69
2024/01/19 00:15:05;;;;;;;;;;;26.80;81.50;;;;;;5031550;28;19917;-71
2024/01/19 00:17:32;;;;;;;;;;;26.80;82.10;;;;;;5029459;28;20454;-72
2024/01/19 00:19:58;;;;;;;;;;;26.90;82.60;;;;;;5013965;28;19913;-71
2024/01/19 00:22:25;;;;;;;;;;;27.10;82.20;;;;;;5030801;28;19924;-71
2024/01/19 00:24:52;;;;;;;;;;;27.10;81.90;;;;;;4994816;28;19920;-71
2024/01/19 00:27:18;;;;;;;;;;;27.30;82.60;;;;;;5012143;28;20429;-70
2024/01/19 00:29:45;;;;;;;;;;;27.40;82.80;;;;;;5030660;28;19913;-69
2024/01/19 00:32:12;;;;;;;;;;;27.40;82.10;;;;;;5031670;28;19909;-70
2024/01/19 00:34:38;;;;;;;;;;;27.50;82.20;;;;;;5013199;28;20024;-71
2024/01/19 00:37:07;;;;;;;;;;;27.40;81.60;;;;;;5012282;28;19909;-71
2024/01/19 00:39:33;;;;;;;;;;;27.50;81.20;;;;;;5028596;28;20336;-71
2024/01/19 00:42:00;;;;;;;;;;;27.50;83.20;;;;;;5031868;28;19917;-70
2024/01/19 00:44:27;;;;;;;;;;;27.50;80.80;;;;;;5016909;28;20386;-70
2024/01/19 00:46:53;;;;;;;;;;;27.50;81.70;;;;;;5012247;28;20272;-71
2024/01/19 00:49:20;;;;;;;;;;;27.70;81.90;;;;;;5011366;28;19913;-71
2024/01/19 00:51:47;;;;;;;;;;;27.80;80.90;;;;;;5012135;28;19914;-72
2024/01/19 00:54:14;;;;;;;;;;;27.90;81.50;;;;;;5012070;28;20396;-70
2024/01/19 00:56:41;;;;;;;;;;;28.00;82.90;;;;;;5011888;28;19960;-70
2024/01/19 00:59:08;;;;;;;;;;;28.20;84.50;;;;;;5025172;28;19932;-70
2024/01/19 01:01:35;;;;;;;;;;;28.40;84.40;;;;;;5016802;28;19949;-71
2024/01/19 01:04:02;;;;;;;;;;;28.50;85.10;;;;;;5011705;28;19916;-71
2024/01/19 01:06:29;;;;;;;;;;;28.60;84.20;;;;;;5011701;28;20341;-72
2024/01/19 01:08:55;;;;;;;;;;;28.70;83.20;;;;;;5019087;28;19909;-70
2024/01/19 01:11:22;;;;;;;;;;;28.80;82.70;;;;;;5031440;28;19992;-70
2024/01/19 01:13:49;;;;;;;;;;;28.80;82.30;;;;;;5027523;28;20011;-69
2024/01/19 01:16:15;;;;;;;;;;;28.90;83.70;;;;;;5022573;28;19921;-68
2024/01/19 01:18:43;;;;;;;;;;;29.00;83.20;;;;;;5013348;28;19913;-72
2024/01/19 01:21:09;;;;;;;;;;;29.20;82.90;;;;;;5021300;28;19914;-70
2024/01/19 01:23:36;;;;;;;;;;;29.20;82.80;;;;;;5011499;28;19909;-71
2024/01/19 01:26:03;;;;;;;;;;;29.20;81.70;;;;;;5012388;28;19917;-71
2024/01/19 01:28:29;;;;;;;;;;;29.30;80.50;;;;;;5023488;28;20741;-70
2024/01/19 01:30:56;;;;;;;;;;;29.40;80.70;;;;;;5034853;28;19928;-70
2024/01/19 01:33:22;;;;;;;;;;;29.50;81.20;;;;;;5035181;28;19909;-70
2024/01/19 01:35:49;;;;;;;;;;;29.60;80.00;;;;;;5028731;28;19921;-72
2024/01/19 01:38:16;;;;;;;;;;;29.60;80.20;;;;;;5021851;28;19909;-71
2024/01/19 01:40:43;;;;;;;;;;;29.60;81.90;;;;;;5016882;28;19917;-70
2024/01/19 01:43:19;;;;;;;;;;;29.80;82.00;;;;;;5035082;28;19909;-71
2024/01/19 01:45:45;;;;;;;;;;;29.90;82.10;;;;;;5029652;28;19910;-71
2024/01/19 01:48:12;;;;;;;;;;;30.00;80.60;;;;;;5015171;28;20289;-70
2024/01/19 01:50:39;;;;;;;;;;;30.10;81.10;;;;;;5015088;28;19921;-71
2024/01/19 01:53:06;;;;;;;;;;;30.20;81.70;;;;;;5020756;28;19910;-71
2024/01/19 01:55:32;;;;;;;;;;;30.30;83.30;;;;;;5034407;28;20360;-71
2024/01/19 01:57:59;;;;;;;;;;;30.40;82.30;;;;;;5030834;28;20375;-71
2024/01/19 02:00:27;;;;;;;;;;;30.60;82.10;;;;;;5013773;28;20016;-71
2024/01/19 02:02:54;;;;;;;;;;;30.70;80.90;;;;;;5019334;28;19920;-71
2024/01/19 02:05:20;;;;;;;;;;;30.80;80.20;;;;;;5034485;28;20042;-71
2024/01/19 02:07:47;;;;;;;;;;;30.80;79.30;;;;;;5031395;28;19913;-72
2024/01/19 02:10:14;;;;;;;;;;;30.80;79.30;;;;;;5014398;28;19916;-71
2024/01/19 02:12:40;;;;;;;;;;;30.70;78.50;;;;;;5016665;28;19917;-72
2024/01/19 02:15:18;;;;;;;;;;;31.00;79.20;;;;;;5033614;28;19917;-72
2024/01/19 02:17:45;;;;;;;;;;;31.10;77.70;;;;;;5033946;28;19917;-72
2024/01/19 02:20:12;;;;;;;;;;;31.20;78.80;;;;;;5034426;28;19920;-72
2024/01/19 02:22:39;;;;;;;;;;;31.30;77.60;;;;;;5015215;28;19914;-72
2024/01/19 02:25:06;;;;;;;;;;;31.30;77.20;;;;;;5014352;28;20246;-72
2024/01/19 02:27:33;;;;;;;;;;;31.40;79.30;;;;;;5014628;28;19921;-72
2024/01/19 02:30:00;;;;;;;;;;;31.40;76.10;;;;;;5034146;28;19927;-71
2024/01/19 02:32:27;;;;;;;;;;;31.40;75.90;;;;;;5016852;28;19922;-72
2024/01/19 02:34:54;;;;;;;;;;;31.40;77.50;;;;;;5013938;28;19921;-71
2024/01/19 02:37:20;;;;;;;;;;;31.60;77.30;;;;;;5014165;28;19914;-72
2024/01/19 02:39:47;;;;;;;;;;;31.60;75.70;;;;;;5032814;28;19909;-71
2024/01/19 02:42:14;;;;;;;;;;;31.80;76.30;;;;;;5033279;28;20254;-71
2024/01/19 02:44:40;;;;;;;;;;;31.90;74.80;;;;;;5033562;28;20413;-69
2024/01/19 02:47:07;;;;;;;;;;;31.80;74.60;;;;;;5033623;28;20419;-70
2024/01/19 02:49:34;;;;;;;;;;;31.80;72.00;;;;;;5032992;28;19909;-68
2024/01/19 02:52:00;;;;;;;;;;;31.60;72.70;;;;;;5003824;28;20388;-69
2024/01/19 02:54:27;;;;;;;;;;;31.70;73.80;;;;;;5013054;28;19910;-69
2024/01/19 02:56:53;;;;;;;;;;;31.80;74.10;;;;;;5013540;28;19968;-69
2024/01/19 02:59:20;;;;;;;;;;;32.00;72.10;;;;;;5028936;28;20337;-68
2024/01/19 03:01:47;;;;;;;;;;;32.00;72.60;;;;;;5033425;28;19932;-69
2024/01/19 03:04:13;;;;;;;;;;;32.20;71.00;;;;;;5033436;28;19943;-69
2024/01/19 03:06:40;;;;;;;;;;;32.40;70.00;;;;;;5025071;28;19924;-68
2024/01/19 03:09:07;;;;;;;;;;;32.80;70.70;;;;;;5013328;28;19910;-67
2024/01/19 03:11:33;;;;;;;;;;;33.40;70.30;;;;;;5013370;28;20048;-69
2024/01/19 03:14:00;;;;;;;;;;;34.10;67.90;;;;;;5026158;28;19956;-68
2024/01/19 03:16:27;;;;;;;;;;;34.40;65.80;;;;;;5014738;28;19921;-68
2024/01/19 03:18:55;;;;;;;;;;;34.90;66.00;;;;;;5033226;28;20668;-70
2024/01/19 03:21:21;;;;;;;;;;;35.50;65.40;;;;;;5010438;28;20297;-68
2024/01/19 03:23:48;;;;;;;;;;;36.10;66.20;;;;;;5013457;28;20374;-68
2024/01/19 03:26:15;;;;;;;;;;;37.40;65.70;;;;;;5013430;28;19945;-69
2024/01/19 03:28:41;;;;;;;;;;;37.70;62.40;;;;;;5022963;28;19913;-69
2024/01/19 03:31:08;;;;;;;;;;;38.10;65.00;;;;;;5032538;28;19956;-68
2024/01/19 03:33:35;;;;;;;;;;;38.30;61.30;;;;;;5032618;28;20372;-67
2024/01/19 03:36:01;;;;;;;;;;;38.50;61.60;;;;;;5031132;28;19917;-68
2024/01/19 03:38:29;;;;;;;;;;;39.10;62.90;;;;;;5012357;28;20277;-70
2024/01/19 03:40:56;;;;;;;;;;;39.40;63.50;;;;;;5013131;28;19909;-69
2024/01/19 03:43:23;;;;;;;;;;;39.60;60.90;;;;;;5020237;28;19920;-68
2024/01/19 03:45:50;;;;;;;;;;;39.80;59.50;;;;;;5033011;28;20281;-68
2024/01/19 03:48:17;;;;;;;;;;;39.90;59.30;;;;;;5013047;28;19967;-67
2024/01/19 03:50:44;;;;;;;;;;;39.10;58.90;;;;;;5012628;28;20417;-68
2024/01/19 03:53:10;;;;;;;;;;;39.60;60.70;;;;;;5018568;28;19918;-72
2024/01/19 03:55:37;;;;;;;;;;;39.80;59.90;;;;;;5032422;28;19918;-70
2024/01/19 03:58:03;;;;;;;;;;;39.90;59.80;;;;;;5032162;28;20483;-71
2024/01/19 04:00:30;;;;;;;;;;;40.30;58.50;;;;;;5032560;28;19918;-70
2024/01/19 04:02:57;;;;;;;;;;;40.90;58.20;;;;;;5016496;28;19921;-71
2024/01/19 04:05:23;;;;;;;;;;;40.90;60.30;;;;;;5012896;28;20008;-70
2024/01/19 04:07:50;;;;;;;;;;;41.50;57.50;;;;;;5015641;28;19921;-68
2024/01/19 04:10:17;;;;;;;;;;;41.40;56.40;;;;;;5014929;28;19913;-70
2024/01/19 04:12:43;;;;;;;;;;;41.60;56.60;;;;;;5025163;28;19916;-71
2024/01/19 04:15:10;;;;;;;;;;;42.00;58.30;;;;;;5032018;28;19940;-69
2024/01/19 04:17:37;;;;;;;;;;;42.60;56.20;;;;;;5019764;28;20008;-71
2024/01/19 04:20:04;;;;;;;;;;;42.20;57.10;;;;;;5012600;28;20384;-70
2024/01/19 04:22:31;;;;;;;;;;;42.00;58.50;;;;;;5003453;28;19928;-69
2024/01/19 04:24:58;;;;;;;;;;;43.00;55.70;;;;;;5012868;28;20321;-70
2024/01/19 04:27:24;;;;;;;;;;;42.90;55.70;;;;;;5012318;28;19925;-70
2024/01/19 04:29:51;;;;;;;;;;;42.50;55.90;;;;;;5031719;28;19909;-71
2024/01/19 04:32:18;;;;;;;;;;;41.90;56.30;;;;;;5014294;28;20868;-71
2024/01/19 04:34:45;;;;;;;;;;;42.20;54.80;;;;;;5013743;28;19913;-71
2024/01/19 04:37:12;;;;;;;;;;;42.20;56.40;;;;;;5014749;28;19916;-71
2024/01/19 04:39:38;;;;;;;;;;;42.90;56.10;;;;;;5010080;28;19920;-71
2024/01/19 04:42:05;;;;;;;;;;;42.50;55.30;;;;;;5011634;28;19913;-71
2024/01/19 04:44:32;;;;;;;;;;;39.90;56.50;;;;;;5013522;28;19910;-68
2024/01/19 04:46:59;;;;;;;;;;;39.50;56.40;;;;;;4998343;28;20349;-72
2024/01/19 04:49:26;;;;;;;;;;;39.70;59.20;;;;;;5014503;28;19992;-72
2024/01/19 04:51:53;;;;;;;;;;;41.20;58.20;;;;;;5032472;28;20277;-71
2024/01/19 04:54:20;;;;;;;;;;;41.30;57.20;;;;;;5032722;28;19995;-71
2024/01/19 04:56:46;;;;;;;;;;;42.40;55.60;;;;;;5032469;28;19918;-69
2024/01/19 04:59:13;;;;;;;;;;;40.70;55.50;;;;;;5032796;28;19916;-70
2024/01/19 05:01:40;;;;;;;;;;;38.80;57.60;;;;;;5036088;28;20342;-68
2024/01/19 05:04:07;;;;;;;;;;;38.00;58.90;;;;;;5036522;28;19909;-69
2024/01/19 05:06:34;;;;;;;;;;;36.50;61.20;;;;;;5034941;28;19920;-70
2024/01/19 05:09:00;;;;;;;;;;;37.00;60.40;;;;;;5036366;28;19996;-70
2024/01/19 05:11:27;;;;;;;;;;;36.80;61.30;;;;;;5036663;28;19913;-70
2024/01/19 05:13:54;;;;;;;;;;;37.50;60.70;;;;;;5036474;28;20392;-68
2024/01/19 05:16:21;;;;;;;;;;;36.50;60.40;;;;;;5036233;28;19924;-72
2024/01/19 05:18:49;;;;;;;;;;;34.90;63.40;;;;;;5036343;28;19909;-70
2024/01/19 05:21:16;;;;;;;;;;;33.00;65.30;;;;;;5036079;28;19928;-70
2024/01/19 05:23:42;;;;;;;;;;;32.10;68.10;;;;;;5035809;28;19909;-71
2024/01/19 05:26:09;;;;;;;;;;;32.00;69.60;;;;;;5036087;28;19964;-69
2024/01/19 05:28:36;;;;;;;;;;;31.60;70.40;;;;;;5036004;28;19914;-74
2024/01/19 05:31:03;;;;;;;;;;;31.30;71.20;;;;;;5035760;28;19909;-69
2024/01/19 05:33:31;;;;;;;;;;;31.10;71.30;;;;;;5036001;28;20007;-69
2024/01/19 05:35:58;;;;;;;;;;;31.20;73.50;;;;;;5035853;28;19924;-71
2024/01/19 05:38:24;;;;;;;;;;;30.80;72.20;;;;;;5036043;28;19955;-69
2024/01/19 05:40:52;;;;;;;;;;;30.40;73.60;;;;;;5018040;28;19909;-68
2024/01/19 05:43:19;;;;;;;;;;;30.50;73.40;;;;;;5035622;28;20471;-70
2024/01/19 05:45:46;;;;;;;;;;;31.00;72.80;;;;;;5035144;28;20278;-70
2024/01/19 05:48:13;;;;;;;;;;;30.90;73.30;;;;;;5035705;28;19947;-72
2024/01/19 05:50:39;;;;;;;;;;;30.90;73.30;;;;;;5035752;28;19909;-68
2024/01/19 05:53:06;;;;;;;;;;;30.60;74.10;;;;;;5035549;28;19963;-70
2024/01/19 05:55:33;;;;;;;;;;;29.90;76.30;;;;;;5035531;28;20431;-70
2024/01/19 05:58:00;;;;;;;;;;;29.50;77.20;;;;;;5035541;28;19910;-69
2024/01/19 06:00:26;;;;;;;;;;;29.60;78.40;;;;;;5035646;28;19909;-70
2024/01/19 06:02:53;;;;;;;;;;;29.50;78.30;;;;;;5035301;28;19909;-70
2024/01/19 06:05:20;;;;;;;;;;;29.50;76.30;;;;;;5035332;28;19951;-69
2024/01/19 06:07:47;;;;;;;;;;;29.40;76.70;;;;;;5035180;28;20327;-70
2024/01/19 06:10:13;;;;;;;;;;;29.30;77.60;;;;;;5035226;28;19957;-70
2024/01/19 06:12:40;;;;;;;;;;;29.30;78.30;;;;;;5016933;28;19967;-71
2024/01/19 06:15:07;;;;;;;;;;;29.10;77.10;;;;;;5015070;28;19917;-70
2024/01/19 06:17:34;;;;;;;;;;;28.90;79.20;;;;;;5014972;28;19910;-70
2024/01/19 06:20:01;;;;;;;;;;;28.90;78.70;;;;;;5015302;28;19909;-71
2024/01/19 06:22:28;;;;;;;;;;;28.60;80.00;;;;;;4997830;28;19912;-73
2024/01/19 06:24:55;;;;;;;;;;;28.20;80.70;;;;;;5016042;28;19920;-70
2024/01/19 06:27:22;;;;;;;;;;;27.80;81.10;;;;;;4997610;28;19944;-72
2024/01/19 06:29:48;;;;;;;;;;;28.10;82.00;;;;;;5015414;28;19910;-71
2024/01/19 06:32:15;;;;;;;;;;;28.50;81.60;;;;;;5015235;28;19910;-70
2024/01/19 06:34:42;;;;;;;;;;;28.90;79.10;;;;;;5014858;28;20277;-71
2024/01/19 06:37:09;;;;;;;;;;;29.20;79.40;;;;;;5014648;28;19952;-69
2024/01/19 06:39:35;;;;;;;;;;;29.00;79.50;;;;;;5015046;28;19916;-70
2024/01/19 06:42:02;;;;;;;;;;;28.80;81.20;;;;;;5015054;28;19910;-69
2024/01/19 06:44:29;;;;;;;;;;;28.90;80.80;;;;;;5014754;28;19910;-70
2024/01/19 06:46:56;;;;;;;;;;;28.70;81.70;;;;;;5014497;28;20305;-71
2024/01/19 06:49:22;;;;;;;;;;;28.50;83.60;;;;;;5014839;28;19910;-72
2024/01/19 06:51:49;;;;;;;;;;;28.70;83.30;;;;;;5014918;28;19909;-71
2024/01/19 06:54:16;;;;;;;;;;;28.90;83.70;;;;;;5014682;28;19916;-72
2024/01/19 06:56:43;;;;;;;;;;;29.30;82.80;;;;;;5014672;28;20453;-71
2024/01/19 06:59:10;;;;;;;;;;;29.60;82.00;;;;;;4996916;28;19916;-70
2024/01/19 07:01:38;;;;;;;;;;;29.50;82.20;;;;;;5014098;28;20361;-70
2024/01/19 07:04:05;;;;;;;;;;;29.40;82.30;;;;;;5013946;28;19918;-69
2024/01/19 07:06:33;;;;;;;;;;;29.50;82.50;;;;;;5033623;28;19909;-70
2024/01/19 07:09:00;;;;;;;;;;;29.40;82.50;;;;;;5032682;28;19909;-70
2024/01/19 07:11:27;;;;;;;;;;;29.40;83.30;;;;;;5032968;28;20280;-68
2024/01/19 07:13:58;;;;;;;;;;;29.30;82.80;;;;;;5032250;28;19913;-69
2024/01/19 07:16:26;;;;;;;;;;;28.90;83.30;;;;;;5034330;28;20349;-73
2024/01/19 07:18:55;;;;;;;;;;;28.70;82.90;;;;;;5030477;28;19916;-69
2024/01/19 07:21:25;;;;;;;;;;;28.50;84.40;;;;;;5033766;28;20023;-70
2024/01/19 07:23:52;;;;;;;;;;;28.40;85.40;;;;;;5029087;28;19952;-70
2024/01/19 07:26:19;;;;;;;;;;;28.30;85.60;;;;;;5020295;28;19921;-71
2024/01/19 07:28:46;;;;;;;;;;;28.20;85.70;;;;;;5014259;28;19909;-69
2024/01/19 07:31:13;;;;;;;;;;;27.90;86.30;;;;;;5013953;28;19992;-70
2024/01/19 07:33:39;;;;;;;;;;;27.90;87.10;;;;;;5014830;28;20162;-70
2024/01/19 07:36:06;;;;;;;;;;;27.80;87.10;;;;;;5013607;28;19972;-69
2024/01/19 07:38:33;;;;;;;;;;;27.70;87.60;;;;;;5014400;28;19917;-71
2024/01/19 07:40:59;;;;;;;;;;;27.50;87.60;;;;;;5014306;28;19916;-70
2024/01/19 07:43:26;;;;;;;;;;;27.20;88.30;;;;;;5011538;28;19917;-71
2024/01/19 07:45:53;;;;;;;;;;;27.20;89.40;;;;;;5029472;28;19909;-72
2024/01/19 07:48:23;;;;;;;;;;;27.10;90.10;;;;;;5031026;28;20354;-71
2024/01/19 07:50:50;;;;;;;;;;;27.10;90.00;;;;;;5017639;28;19921;-72
2024/01/19 07:53:17;;;;;;;;;;;27.20;90.10;;;;;;5020581;28;20358;-71
2024/01/19 07:55:44;;;;;;;;;;;27.30;90.60;;;;;;5011449;28;19978;-71
2024/01/19 07:58:10;;;;;;;;;;;27.50;90.40;;;;;;5023743;28;20004;-71
2024/01/19 08:00:37;;;;;;;;;;;27.40;90.00;;;;;;5028493;28;19913;-72
2024/01/19 08:03:04;;;;;;;;;;;27.20;90.70;;;;;;5031897;28;19917;-71
2024/01/19 08:05:31;;;;;;;;;;;27.10;90.80;;;;;;5016256;28;19920;-72
2024/01/19 08:07:57;;;;;;;;;;;27.20;91.40;;;;;;5012758;28;19924;-72
2024/01/19 08:10:25;;;;;;;;;;;27.20;91.50;;;;;;5013138;28;19939;-72
2024/01/19 08:12:51;;;;;;;;;;;27.00;91.60;;;;;;5013160;28;19920;-71
2024/01/19 08:15:18;;;;;;;;;;;27.00;92.00;;;;;;5012783;28;19944;-71
2024/01/19 08:17:45;;;;;;;;;;;26.90;92.10;;;;;;5028758;28;19913;-71
2024/01/19 08:20:12;;;;;;;;;;;26.80;92.30;;;;;;5021582;28;20008;-72
2024/01/19 08:22:38;;;;;;;;;;;26.60;92.40;;;;;;5028824;28;19920;-71
2024/01/19 08:25:05;;;;;;;;;;;26.50;92.70;;;;;;5031915;28;19971;-72
2024/01/19 08:27:32;;;;;;;;;;;26.50;92.80;;;;;;5029598;28;19925;-72
2024/01/19 08:30:02;;;;;;;;;;;26.40;92.80;;;;;;5020579;28;20229;-71
2024/01/19 08:32:29;;;;;;;;;;;26.30;93.30;;;;;;5028375;28;19985;-71
2024/01/19 08:34:55;;;;;;;;;;;26.30;93.00;;;;;;5013199;28;20373;-70
2024/01/19 08:37:22;;;;;;;;;;;26.20;93.10;;;;;;5031296;28;19921;-70
2024/01/19 08:39:49;;;;;;;;;;;26.10;93.30;;;;;;5031700;28;20365;-71
2024/01/19 08:42:16;;;;;;;;;;;26.00;93.70;;;;;;5031563;28;20362;-71
2024/01/19 08:44:45;;;;;;;;;;;25.90;94.10;;;;;;5026331;28;19913;-72
2024/01/19 08:47:12;;;;;;;;;;;25.80;94.50;;;;;;5012326;28;19913;-71
2024/01/19 08:49:39;;;;;;;;;;;25.80;94.40;;;;;;5011962;28;19913;-72
2024/01/19 08:52:06;;;;;;;;;;;25.80;94.30;;;;;;5017825;28;20351;-72
2024/01/19 08:54:33;;;;;;;;;;;25.80;94.40;;;;;;5021230;28;20381;-72
2024/01/19 08:57:00;;;;;;;;;;;25.80;94.30;;;;;;5019836;28;19952;-71
2024/01/19 08:59:27;;;;;;;;;;;25.70;94.40;;;;;;5031852;28;19914;-70
2024/01/19 09:01:54;;;;;;;;;;;25.60;94.20;;;;;;5031290;28;20641;-71
2024/01/19 09:04:21;;;;;;;;;;;25.60;94.50;;;;;;5031307;28;20361;-74
2024/01/19 09:06:47;;;;;;;;;;;25.40;94.50;;;;;;5026738;28;19914;-70
2024/01/19 09:09:14;;;;;;;;;;;25.30;94.90;;;;;;5019749;28;19970;-71
2024/01/19 09:11:41;;;;;;;;;;;25.30;95.70;;;;;;5011909;28;19913;-73
2024/01/19 09:14:09;;;;;;;;;;;25.20;95.60;;;;;;5017523;28;19916;-72
2024/01/19 09:16:36;;;;;;;;;;;25.10;96.20;;;;;;5032072;28;19917;-72
2024/01/19 09:19:03;;;;;;;;;;;25.10;96.50;;;;;;5031817;28;19913;-73
2024/01/19 09:21:29;;;;;;;;;;;25.10;96.80;;;;;;5012402;28;19916;-73
2024/01/19 09:23:56;;;;;;;;;;;25.10;97.30;;;;;;5015946;28;20003;-73
2024/01/19 09:26:23;;;;;;;;;;;25.00;97.40;;;;;;5031246;28;20016;-71
2024/01/19 09:28:51;;;;;;;;;;;25.00;97.80;;;;;;5013908;28;19913;-70
2024/01/19 09:31:17;;;;;;;;;;;25.10;98.30;;;;;;5019665;28;20388;-71
2024/01/19 09:33:44;;;;;;;;;;;25.10;98.60;;;;;;5014491;28;19967;-70
2024/01/19 09:36:11;;;;;;;;;;;25.20;98.80;;;;;;5009207;28;19979;-70
2024/01/19 09:38:38;;;;;;;;;;;25.30;99.10;;;;;;5010802;28;19910;-72
2024/01/19 09:41:23;;;;;;;;;;;25.40;99.40;;;;;;5029187;28;19939;-71
2024/01/19 09:43:54;;;;;;;;;;;25.30;99.70;;;;;;5025775;28;19925;-72
2024/01/19 09:46:25;;;;;;;;;;;25.40;99.90;;;;;;5016392;28;20273;-71
2024/01/19 09:49:01;;;;;;;;;;;25.40;99.90;;;;;;5015503;28;19914;-70
2024/01/19 09:51:35;;;;;;;;;;;25.40;99.90;;;;;;5015297;28;20274;-71
2024/01/19 09:54:03;;;;;;;;;;;25.30;99.90;;;;;;5019933;28;20273;-71
2024/01/19 09:56:30;;;;;;;;;;;25.30;99.90;;;;;;5025366;28;19975;-71
2024/01/19 09:58:59;;;;;;;;;;;25.20;99.90;;;;;;5035083;28;19913;-73
2024/01/19 10:01:26;;;;;;;;;;;25.20;99.90;;;;;;5015936;28;20384;-73
2024/01/19 10:03:57;;;;;;;;;;;25.20;99.90;;;;;;5014869;28;19910;-70
2024/01/19 10:06:23;;;;;;;;;;;25.10;99.90;;;;;;5014910;28;19914;-70
2024/01/19 10:08:53;;;;;;;;;;;25.20;99.90;;;;;;5027154;28;19966;-71
2024/01/19 10:11:21;;;;;;;;;;;25.10;99.90;;;;;;5034449;28;19920;-72
2024/01/19 10:13:47;;;;;;;;;;;25.10;99.90;;;;;;5016536;28;19913;-71
2024/01/19 10:16:14;;;;;;;;;;;25.10;99.90;;;;;;5017965;28;19982;-71
2024/01/19 10:18:41;;;;;;;;;;;25.00;99.90;;;;;;5033981;28;20406;-72
2024/01/19 10:21:08;;;;;;;;;;;24.90;99.90;;;;;;5033896;28;20008;-73
2024/01/19 10:23:35;;;;;;;;;;;25.00;99.90;;;;;;5031692;28;19924;-73
2024/01/19 10:26:18;;;;;;;;;;;24.90;99.90;;;;;;5034608;28;20369;-74
2024/01/19 10:28:45;;;;;;;;;;;24.90;99.90;;;;;;5023811;28;20064;-72
2024/01/19 10:31:26;;;;;;;;;;;24.90;99.90;;;;;;5018510;28;19913;-69
2024/01/19 10:33:55;;;;;;;;;;;24.90;99.90;;;;;;5014339;28;19910;-72
2024/01/19 10:36:27;;;;;;;;;;;24.90;99.90;;;;;;5020777;28;20323;-72
2024/01/19 10:38:53;;;;;;;;;;;24.80;99.90;;;;;;5035023;28;19955;-70
2024/01/19 10:41:26;;;;;;;;;;;24.80;99.90;;;;;;5034720;28;20292;-73
2024/01/19 10:43:53;;;;;;;;;;;24.80;99.90;;;;;;5017606;28;19932;-73
2024/01/19 10:46:20;;;;;;;;;;;24.90;99.90;;;;;;5014851;28;20247;-71
2024/01/19 10:48:49;;;;;;;;;;;24.90;99.90;;;;;;5015071;28;19943;-71
2024/01/19 10:51:18;;;;;;;;;;;24.80;99.90;;;;;;5019664;28;19913;-71
2024/01/19 10:53:44;;;;;;;;;;;24.80;99.90;;;;;;5033531;28;19913;-72
2024/01/19 10:56:17;;;;;;;;;;;24.60;99.90;;;;;;5033533;28;19920;-71
2024/01/19 10:58:44;;;;;;;;;;;24.70;99.90;;;;;;5033889;28;19913;-72
2024/01/19 11:01:17;;;;;;;;;;;24.70;99.90;;;;;;5026714;28;19914;-72
2024/01/19 11:03:44;;;;;;;;;;;24.80;99.90;;;;;;5014410;28;20004;-72
2024/01/19 11:06:11;;;;;;;;;;;24.80;99.90;;;;;;5020301;28;19917;-72
2024/01/19 11:08:38;;;;;;;;;;;24.90;99.90;;;;;;5034120;28;20373;-72
2024/01/19 11:11:05;;;;;;;;;;;24.80;99.90;;;;;;5026226;28;20361;-71
2024/01/19 11:13:42;;;;;;;;;;;24.80;99.90;;;;;;5033341;28;19909;-71
2024/01/19 11:16:12;;;;;;;;;;;24.80;99.90;;;;;;5032802;28;20350;-71
2024/01/19 11:18:39;;;;;;;;;;;24.80;99.90;;;;;;5023017;28;19968;-71
2024/01/19 11:21:06;;;;;;;;;;;24.80;99.90;;;;;;5013198;28;20000;-71
2024/01/19 11:23:34;;;;;;;;;;;24.70;99.90;;;;;;5013640;28;19917;-71
2024/01/19 11:26:07;;;;;;;;;;;24.70;99.90;;;;;;5015591;28;19922;-71
2024/01/19 11:28:36;;;;;;;;;;;24.60;99.90;;;;;;5033937;28;19909;-71
2024/01/19 11:31:19;;;;;;;;;;;24.50;99.90;;;;;;5018082;28;20211;-72
2024/01/19 11:33:46;;;;;;;;;;;24.50;99.90;;;;;;5013619;28;19910;-71
2024/01/19 11:36:33;;;;;;;;;;;24.50;99.90;;;;;;5014051;28;19918;-71
2024/01/19 11:38:59;;;;;;;;;;;24.50;99.90;;;;;;5018498;28;20008;-71
2024/01/19 11:41:46;;;;;;;;;;;24.50;99.90;;;;;;5014361;28;19956;-71
2024/01/19 11:44:33;;;;;;;;;;;24.50;99.90;;;;;;5029703;28;19913;-70
2024/01/19 11:46:59;;;;;;;;;;;24.60;99.90;;;;;;5011485;28;19935;-71
2024/01/19 11:49:37;;;;;;;;;;;24.50;99.90;;;;;;5024076;28;20429;-73
2024/01/19 11:52:23;;;;;;;;;;;24.40;99.90;;;;;;5024020;28;19917;-70
2024/01/19 11:54:50;;;;;;;;;;;24.40;99.90;;;;;;5021247;28;19917;-71
2024/01/19 11:57:24;;;;;;;;;;;24.40;99.90;;;;;;5020998;28;19924;-72
2024/01/19 11:59:51;;;;;;;;;;;24.30;99.90;;;;;;5028245;28;19920;-72
2024/01/19 12:02:27;;;;;;;;;;;24.30;99.90;;;;;;5033186;28;20369;-69
2024/01/19 12:04:54;;;;;;;;;;;24.30;99.90;;;;;;5033020;28;20000;-71
2024/01/19 12:07:24;;;;;;;;;;;24.30;99.90;;;;;;5032457;28;19921;-70
2024/01/19 12:10:09;;;;;;;;;;;24.30;99.90;;;;;;5032010;28;19913;-73
2024/01/19 12:12:37;;;;;;;;;;;24.20;99.90;;;;;;5033198;28;20439;-71
2024/01/19 12:15:04;;;;;;;;;;;24.00;99.90;;;;;;5031194;28;19916;-72
2024/01/19 12:17:31;;;;;;;;;;;24.00;99.90;;;;;;5033064;28;19923;-72
2024/01/19 12:19:58;;;;;;;;;;;24.00;99.90;;;;;;5015207;28;20004;-72
2024/01/19 12:22:25;;;;;;;;;;;24.00;99.90;;;;;;5033136;28;19916;-71
2024/01/19 12:24:51;;;;;;;;;;;24.00;99.90;;;;;;5012624;28;19909;-69
2024/01/19 12:27:18;;;;;;;;;;;24.00;99.90;;;;;;5013147;28;20300;-71
2024/01/19 12:29:45;;;;;;;;;;;24.00;99.90;;;;;;5014039;28;19949;-71
2024/01/19 12:32:12;;;;;;;;;;;24.00;99.90;;;;;;5032560;28;20058;-71
2024/01/19 12:34:55;;;;;;;;;;;24.10;99.90;;;;;;5032248;28;20000;-71
2024/01/19 12:37:22;;;;;;;;;;;24.10;99.90;;;;;;5025507;28;19927;-71
2024/01/19 12:39:49;;;;;;;;;;;24.10;99.90;;;;;;5032831;28;19910;-74
2024/01/19 12:42:17;;;;;;;;;;;24.00;99.90;;;;;;5032636;28;20276;-72
2024/01/19 12:44:43;;;;;;;;;;;24.10;99.90;;;;;;5032617;28;19909;-70
2024/01/19 12:47:11;;;;;;;;;;;24.00;99.90;;;;;;5032210;28;19943;-71
2024/01/19 12:49:38;;;;;;;;;;;24.00;99.90;;;;;;5028545;28;19913;-72
2024/01/19 12:52:05;;;;;;;;;;;24.00;99.90;;;;;;5031962;28;19917;-73
2024/01/19 12:54:50;;;;;;;;;;;23.90;99.90;;;;;;5013891;28;20504;-71
2024/01/19 12:57:20;;;;;;;;;;;23.90;99.90;;;;;;5032164;28;20067;-72
2024/01/19 12:59:47;;;;;;;;;;;23.90;99.90;;;;;;5032188;28;19916;-72
2024/01/19 13:02:14;;;;;;;;;;;23.90;99.90;;;;;;5029972;28;19921;-72
2024/01/19 13:04:41;;;;;;;;;;;23.90;99.90;;;;;;5012740;28;20004;-71
2024/01/19 13:07:08;;;;;;;;;;;23.90;99.90;;;;;;5018491;28;20373;-71
2024/01/19 13:09:34;;;;;;;;;;;23.90;99.90;;;;;;5031782;28;19917;-71
2024/01/19 13:12:10;;;;;;;;;;;24.00;99.90;;;;;;5032663;28;19917;-71
2024/01/19 13:14:37;;;;;;;;;;;24.00;99.90;;;;;;5032548;28;20023;-71
2024/01/19 13:17:04;;;;;;;;;;;24.00;99.90;;;;;;5032508;28;19918;-72
2024/01/19 13:19:31;;;;;;;;;;;24.00;99.90;;;;;;5031645;28;19999;-72
2024/01/19 13:22:04;;;;;;;;;;;24.00;99.90;;;;;;5018978;28;20004;-71
2024/01/19 13:24:32;;;;;;;;;;;24.00;99.90;;;;;;5036019;28;19909;-71
2024/01/19 13:27:02;;;;;;;;;;;24.00;99.90;;;;;;5036259;28;19928;-72
2024/01/19 13:29:29;;;;;;;;;;;23.90;99.90;;;;;;5036045;28;19913;-70
2024/01/19 13:31:57;;;;;;;;;;;23.90;99.90;;;;;;5034501;28;19917;-71
2024/01/19 13:34:27;;;;;;;;;;;23.90;99.90;;;;;;5033645;28;19952;-70
2024/01/19 13:36:54;;;;;;;;;;;23.90;99.90;;;;;;5035040;28;20004;-71
2024/01/19 13:39:20;;;;;;;;;;;23.80;99.90;;;;;;5028868;28;19913;-71
2024/01/19 13:41:47;;;;;;;;;;;23.80;99.90;;;;;;5035766;28;19955;-71
2024/01/19 13:44:14;;;;;;;;;;;23.90;99.90;;;;;;5024191;28;20134;-72
2024/01/19 13:46:41;;;;;;;;;;;23.80;99.90;;;;;;5016038;28;19910;-71
2024/01/19 13:49:07;;;;;;;;;;;23.90;99.90;;;;;;5016102;28;19913;-71
2024/01/19 13:51:34;;;;;;;;;;;23.90;99.90;;;;;;4998466;28;19910;-71
2024/01/19 13:54:01;;;;;;;;;;;23.90;99.90;;;;;;5015967;28;20305;-71
2024/01/19 13:56:29;;;;;;;;;;;23.90;99.90;;;;;;5023586;28;20388;-70
2024/01/19 13:58:56;;;;;;;;;;;23.90;99.90;;;;;;4998231;28;20389;-70
2024/01/19 14:01:23;;;;;;;;;;;23.90;99.90;;;;;;5015746;28;19910;-70
2024/01/19 14:03:50;;;;;;;;;;;23.90;99.90;;;;;;5015709;28;19909;-71
2024/01/19 14:06:17;;;;;;;;;;;23.90;99.90;;;;;;5020950;28;19913;-71
2024/01/19 14:08:51;;;;;;;;;;;23.90;99.90;;;;;;5035330;28;19998;-71
2024/01/19 14:11:19;;;;;;;;;;;23.90;99.90;;;;;;5036020;28;20355;-71
2024/01/19 14:13:46;;;;;;;;;;;23.80;99.90;;;;;;5035680;28;20285;-70
2024/01/19 14:16:12;;;;;;;;;;;23.80;99.90;;;;;;5035578;28;19918;-72
2024/01/19 14:18:39;;;;;;;;;;;23.80;99.90;;;;;;5035443;28;19940;-71